createdAt,value
2017-04-04T00:00:54.949Z,11.58
2017-04-04T00:02:04.169Z,11.61
2017-04-04T00:03:13.129Z,11.64
2017-04-04T00:04:22.255Z,11.57
2017-04-04T00:05:31.616Z,11.65
2017-04-04T00:06:40.568Z,11.6
2017-04-04T00:07:49.525Z,11.55
2017-04-04T00:08:58.870Z,11.62
2017-04-04T00:10:08.200Z,11.62
2017-04-04T00:11:17.906Z,11.7
2017-04-04T00:12:27.282Z,11.57
2017-04-04T00:13:37.095Z,11.62
2017-04-04T00:14:46.048Z,11.58
2017-04-04T00:15:55.004Z,11.6
2017-04-04T00:17:06.682Z,11.61
2017-04-04T00:18:16.684Z,11.54
2017-04-04T00:19:26.232Z,11.64
2017-04-04T00:20:35.764Z,11.6
2017-04-04T00:21:45.025Z,11.7
2017-04-04T00:22:54.975Z,11.7
2017-04-04T00:24:05.218Z,11.7
2017-04-04T00:25:15.525Z,11.7
2017-04-04T00:26:24.683Z,11.65
2017-04-04T00:27:34.494Z,11.69
2017-04-04T00:28:44.507Z,11.75
2017-04-04T00:29:53.600Z,11.73
2017-04-04T00:31:02.553Z,11.73
2017-04-04T00:32:11.595Z,11.73
2017-04-04T00:33:20.954Z,11.67
2017-04-04T00:34:30.209Z,11.76
2017-04-04T00:35:41.594Z,11.72
2017-04-04T00:36:52.457Z,11.82
2017-04-04T00:38:02.698Z,11.73
2017-04-04T00:39:11.982Z,11.85
2017-04-04T00:40:21.912Z,11.75
2017-04-04T00:41:30.863Z,11.78
2017-04-04T00:42:39.823Z,11.8
2017-04-04T00:43:48.864Z,11.83
2017-04-04T00:44:59.310Z,11.76
2017-04-04T00:46:08.920Z,11.83
2017-04-04T00:47:17.875Z,11.8
2017-04-04T00:48:26.836Z,11.76
2017-04-04T00:49:36.147Z,11.78
2017-04-04T00:50:45.106Z,11.73
2017-04-04T00:51:54.471Z,11.78
2017-04-04T00:53:03.438Z,11.75
2017-04-04T00:54:12.395Z,11.75
2017-04-04T00:55:21.363Z,11.69
2017-04-04T00:56:31.324Z,11.73
2017-04-04T00:57:40.528Z,11.7
2017-04-04T00:58:49.484Z,11.65
2017-04-04T00:59:58.436Z,11.65
2017-04-04T01:01:07.386Z,11.65
2017-04-04T01:02:16.341Z,11.65
2017-04-04T01:03:25.543Z,11.69
2017-04-04T01:04:35.066Z,11.64
2017-04-04T01:05:44.851Z,11.65
2017-04-04T01:06:53.831Z,11.67
2017-04-04T01:08:02.868Z,11.55
2017-04-04T01:09:12.980Z,11.7
2017-04-04T01:10:21.937Z,11.69
2017-04-04T01:11:31.673Z,11.79
2017-04-04T01:12:40.629Z,11.61
2017-04-04T01:13:50.071Z,11.64
2017-04-04T01:15:00.573Z,11.69
2017-04-04T01:16:09.526Z,11.69
2017-04-04T01:17:19.512Z,11.65
2017-04-04T01:18:28.480Z,11.7
2017-04-04T01:19:38.472Z,11.7
2017-04-04T01:20:47.906Z,11.65
2017-04-04T01:21:56.863Z,11.73
2017-04-04T01:23:05.821Z,11.7
2017-04-04T01:24:14.775Z,11.65
2017-04-04T01:25:23.814Z,11.7
2017-04-04T01:26:33.511Z,11.55
2017-04-04T01:27:43.443Z,11.67
2017-04-04T01:28:52.395Z,11.55
2017-04-04T01:30:01.342Z,11.7
2017-04-04T01:31:10.300Z,11.67
2017-04-04T01:32:19.552Z,11.65
2017-04-04T01:33:28.510Z,11.62
2017-04-04T01:34:37.839Z,11.54
2017-04-04T01:35:46.794Z,11.6
2017-04-04T01:36:55.954Z,11.61
2017-04-04T01:38:05.157Z,11.62
2017-04-04T01:39:14.112Z,11.49
2017-04-04T01:40:23.060Z,11.52
2017-04-04T01:41:32.022Z,11.51
2017-04-04T01:42:42.320Z,11.55
2017-04-04T01:43:51.587Z,11.46
2017-04-04T01:45:00.536Z,11.52
2017-04-04T01:46:09.665Z,11.57
2017-04-04T01:47:18.799Z,11.58
2017-04-04T01:48:27.755Z,11.44
2017-04-04T01:49:36.960Z,11.55
2017-04-04T01:50:45.995Z,11.47
2017-04-04T01:51:55.146Z,11.44
2017-04-04T01:53:04.095Z,11.47
2017-04-04T01:54:13.053Z,11.47
2017-04-04T01:55:22.297Z,11.58
2017-04-04T01:56:32.144Z,11.62
2017-04-04T01:57:41.814Z,11.6
2017-04-04T01:58:50.764Z,11.57
2017-04-04T02:00:00.532Z,11.6
2017-04-04T02:01:09.737Z,11.58
2017-04-04T02:02:18.870Z,11.54
2017-04-04T02:03:27.881Z,11.52
2017-04-04T02:04:37.283Z,11.54
2017-04-04T02:05:46.344Z,11.65
2017-04-04T02:06:56.929Z,11.69
2017-04-04T02:08:07.725Z,11.67
2017-04-04T02:09:17.470Z,11.64
2017-04-04T02:10:26.616Z,11.62
2017-04-04T02:11:35.573Z,11.65
2017-04-04T02:12:44.954Z,11.67
2017-04-04T02:13:54.364Z,11.57
2017-04-04T02:15:03.735Z,11.7
2017-04-04T02:16:12.693Z,11.6
2017-04-04T02:17:21.742Z,11.62
2017-04-04T02:18:31.730Z,11.64
2017-04-04T02:19:41.300Z,11.58
2017-04-04T02:20:50.253Z,11.57
2017-04-04T02:21:59.210Z,11.49
2017-04-04T02:23:08.548Z,11.43
2017-04-04T02:24:17.896Z,11.46
2017-04-04T02:25:26.864Z,11.42
2017-04-04T02:26:35.820Z,11.36
2017-04-04T02:27:45.252Z,11.28
2017-04-04T02:28:54.342Z,11.24
2017-04-04T02:30:04.414Z,11.11
2017-04-04T02:31:13.395Z,11.19
2017-04-04T02:32:22.349Z,11.17
2017-04-04T02:33:31.340Z,11.17
2017-04-04T02:34:40.306Z,11.17
2017-04-04T02:35:49.545Z,11.03
2017-04-04T02:36:58.499Z,11.1
2017-04-04T02:38:07.451Z,11.03
2017-04-04T02:39:16.404Z,11.11
2017-04-04T02:40:25.353Z,11.11
2017-04-04T02:41:34.569Z,11.07
2017-04-04T02:42:43.521Z,11.18
2017-04-04T02:43:52.484Z,11.07
2017-04-04T02:45:01.433Z,11.14
2017-04-04T02:46:10.383Z,11.07
2017-04-04T02:47:19.587Z,11.11
2017-04-04T02:48:28.546Z,11.18
2017-04-04T02:49:37.497Z,11.1
2017-04-04T02:50:46.463Z,11.15
2017-04-04T02:51:55.413Z,11.09
2017-04-04T02:53:04.617Z,11.09
2017-04-04T02:54:13.570Z,11.11
2017-04-04T02:55:22.847Z,11.04
2017-04-04T02:56:31.810Z,11.06
2017-04-04T02:57:40.766Z,11.19
2017-04-04T02:58:49.967Z,11.18
2017-04-04T02:59:58.918Z,11.07
2017-04-04T03:01:07.959Z,11.09
2017-04-04T03:02:16.915Z,11.15
2017-04-04T03:03:25.878Z,11.14
2017-04-04T03:04:35.085Z,11.18
2017-04-04T03:05:44.043Z,11.22
2017-04-04T03:06:53.004Z,11.14
2017-04-04T03:08:01.961Z,11.18
2017-04-04T03:09:10.915Z,11.07
2017-04-04T03:10:20.115Z,11.07
2017-04-04T03:11:29.070Z,11.02
2017-04-04T03:12:38.022Z,11.07
2017-04-04T03:13:46.976Z,11.04
2017-04-04T03:14:55.930Z,11.04
2017-04-04T03:16:05.220Z,11.04
2017-04-04T03:17:14.170Z,11.09
2017-04-04T03:18:23.119Z,11.07
2017-04-04T03:19:32.069Z,11.03
2017-04-04T03:20:41.019Z,11.06
2017-04-04T03:21:50.223Z,11.04
2017-04-04T03:22:59.180Z,11.15
2017-04-04T03:24:08.219Z,11.09
2017-04-04T03:25:17.256Z,11.11
2017-04-04T03:26:26.208Z,11.18
2017-04-04T03:27:35.411Z,11.11
2017-04-04T03:28:44.366Z,11.02
2017-04-04T03:29:53.404Z,11.02
2017-04-04T03:31:02.356Z,11.06
2017-04-04T03:32:11.307Z,11.02
2017-04-04T03:33:20.568Z,10.96
2017-04-04T03:34:29.610Z,11.06
2017-04-04T03:35:38.566Z,11.03
2017-04-04T03:36:47.528Z,11.1
2017-04-04T03:37:56.484Z,11.17
2017-04-04T03:39:05.776Z,11.11
2017-04-04T03:40:14.730Z,11.18
2017-04-04T03:41:24.267Z,11.06
2017-04-04T03:42:33.223Z,11.09
2017-04-04T03:43:42.173Z,11.19
2017-04-04T03:44:51.699Z,11.15
2017-04-04T03:46:00.656Z,11.18
2017-04-04T03:47:09.614Z,11.15
2017-04-04T03:48:18.569Z,11.1
2017-04-04T03:49:27.615Z,11.24
2017-04-04T03:50:36.910Z,11.25
2017-04-04T03:51:45.867Z,11.22
2017-04-04T03:52:54.822Z,11.17
2017-04-04T03:54:03.778Z,11.19
2017-04-04T03:55:13.099Z,11.18
2017-04-04T03:56:22.360Z,11.03
2017-04-04T03:57:31.311Z,11.06
2017-04-04T03:58:40.262Z,11.04
2017-04-04T03:59:49.213Z,11.1
2017-04-04T04:00:58.174Z,11.07
2017-04-04T04:02:07.434Z,11.03
2017-04-04T04:03:16.389Z,11.06
2017-04-04T04:04:25.343Z,11.07
2017-04-04T04:05:34.296Z,11.21
2017-04-04T04:06:43.338Z,11.17
2017-04-04T04:07:52.592Z,11.17
2017-04-04T04:09:01.552Z,11.19
2017-04-04T04:10:10.503Z,11.11
2017-04-04T04:11:19.455Z,11.1
2017-04-04T04:12:28.424Z,11.1
2017-04-04T04:13:37.678Z,11.07
2017-04-04T04:14:46.629Z,11.04
2017-04-04T04:15:55.673Z,11.04
2017-04-04T04:17:04.627Z,11.1
2017-04-04T04:18:13.580Z,11.03
2017-04-04T04:19:22.886Z,11.06
2017-04-04T04:20:31.851Z,11.03
2017-04-04T04:21:40.807Z,11.11
2017-04-04T04:22:49.761Z,11.17
2017-04-04T04:23:58.706Z,11.09
2017-04-04T04:25:07.912Z,11.04
2017-04-04T04:26:16.867Z,11.1
2017-04-04T04:27:25.816Z,11.07
2017-04-04T04:28:34.771Z,10.99
2017-04-04T04:29:43.722Z,10.94
2017-04-04T04:30:52.984Z,10.89
2017-04-04T04:32:01.942Z,10.84
2017-04-04T04:33:10.898Z,10.85
2017-04-04T04:34:20.267Z,10.76
2017-04-04T04:35:29.219Z,10.78
2017-04-04T04:36:38.421Z,10.81
2017-04-04T04:37:47.374Z,10.81
2017-04-04T04:38:56.329Z,10.78
2017-04-04T04:40:05.290Z,10.7
2017-04-04T04:41:14.245Z,10.63
2017-04-04T04:42:23.531Z,10.71
2017-04-04T04:43:32.493Z,10.71
2017-04-04T04:44:41.446Z,10.67
2017-04-04T04:45:50.398Z,10.66
2017-04-04T04:46:59.360Z,10.7
2017-04-04T04:48:08.565Z,10.74
2017-04-04T04:49:17.517Z,10.76
2017-04-04T04:50:26.474Z,10.84
2017-04-04T04:51:35.515Z,10.84
2017-04-04T04:52:44.474Z,10.92
2017-04-04T04:53:53.730Z,10.85
2017-04-04T04:55:02.682Z,10.99
2017-04-04T04:56:11.643Z,10.96
2017-04-04T04:57:20.595Z,10.97
2017-04-04T04:58:29.552Z,11.03
2017-04-04T04:59:38.802Z,11.03
2017-04-04T05:00:47.766Z,11.04
2017-04-04T05:01:56.808Z,11.03
2017-04-04T05:03:05.770Z,10.99
2017-04-04T05:04:14.727Z,11
2017-04-04T05:05:23.935Z,11.04
2017-04-04T05:06:33.038Z,11.02
2017-04-04T05:07:41.994Z,11.03
2017-04-04T05:08:50.949Z,11
2017-04-04T05:10:00.077Z,10.99
2017-04-04T05:11:09.372Z,10.97
2017-04-04T05:12:18.329Z,11.04
2017-04-04T05:13:27.286Z,10.97
2017-04-04T05:14:36.254Z,11.1
2017-04-04T05:15:45.206Z,11.11
2017-04-04T05:16:54.459Z,11.1
2017-04-04T05:18:03.418Z,11.17
2017-04-04T05:19:12.369Z,11.22
2017-04-04T05:20:21.322Z,11.22
2017-04-04T05:21:30.278Z,11.17
2017-04-04T05:22:39.668Z,11.18
2017-04-04T05:23:48.626Z,11.24
2017-04-04T05:24:57.580Z,11.25
2017-04-04T05:26:06.535Z,11.25
2017-04-04T05:27:15.486Z,11.27
2017-04-04T05:28:24.739Z,11.24
2017-04-04T05:29:33.697Z,11.25
2017-04-04T05:30:42.651Z,11.22
2017-04-04T05:31:51.609Z,11.27
2017-04-04T05:33:00.565Z,11.27
2017-04-04T05:34:09.768Z,11.24
2017-04-04T05:35:18.822Z,11.24
2017-04-04T05:36:27.780Z,11.24
2017-04-04T05:37:36.733Z,11.17
2017-04-04T05:38:45.779Z,11.14
2017-04-04T05:39:55.032Z,11.19
2017-04-04T05:41:04.003Z,11.11
2017-04-04T05:42:12.963Z,11.24
2017-04-04T05:43:21.922Z,11.1
2017-04-04T05:44:30.964Z,11.1
2017-04-04T05:45:40.221Z,11.14
2017-04-04T05:46:49.260Z,11.17
2017-04-04T05:47:58.214Z,11.09
2017-04-04T05:49:07.171Z,11.06
2017-04-04T05:50:16.128Z,11.03
2017-04-04T05:51:25.383Z,11.02
2017-04-04T05:52:34.377Z,10.97
2017-04-04T05:53:43.330Z,11
2017-04-04T05:54:52.371Z,10.99
2017-04-04T05:56:02.148Z,11
2017-04-04T05:57:11.398Z,10.94
2017-04-04T05:58:20.351Z,11.02
2017-04-04T05:59:29.301Z,11.02
2017-04-04T06:00:38.254Z,10.99
2017-04-04T06:01:47.299Z,10.91
2017-04-04T06:02:56.553Z,10.88
2017-04-04T06:04:05.508Z,10.97
2017-04-04T06:05:14.461Z,10.88
2017-04-04T06:06:23.416Z,10.86
2017-04-04T06:07:32.372Z,10.92
2017-04-04T06:08:41.631Z,11
2017-04-04T06:09:50.674Z,10.92
2017-04-04T06:10:59.632Z,10.96
2017-04-04T06:12:08.593Z,11.06
2017-04-04T06:13:17.554Z,11.1
2017-04-04T06:14:27.338Z,11.1
2017-04-04T06:15:37.460Z,11.09
2017-04-04T06:16:46.416Z,11.09
2017-04-04T06:17:55.376Z,11.11
2017-04-04T06:19:04.342Z,11.25
2017-04-04T06:20:13.600Z,11.21
2017-04-04T06:21:22.554Z,11.22
2017-04-04T06:22:31.518Z,11.19
2017-04-04T06:23:40.468Z,11.22
2017-04-04T06:24:49.424Z,11.29
2017-04-04T06:25:58.679Z,11.32
2017-04-04T06:27:07.635Z,11.25
2017-04-04T06:28:16.600Z,11.37
2017-04-04T06:29:25.551Z,11.32
2017-04-04T06:30:34.506Z,11.35
2017-04-04T06:31:43.756Z,11.37
2017-04-04T06:32:52.799Z,11.33
2017-04-04T06:34:01.833Z,11.49
2017-04-04T06:35:10.786Z,11.47
2017-04-04T06:36:19.744Z,11.54
2017-04-04T06:37:28.954Z,11.46
2017-04-04T06:38:37.906Z,11.44
2017-04-04T06:39:46.865Z,11.51
2017-04-04T06:40:56.045Z,11.36
2017-04-04T06:42:05.136Z,11.33
2017-04-04T06:43:14.385Z,11.27
2017-04-04T06:44:23.378Z,11.29
2017-04-04T06:45:32.328Z,11.18
2017-04-04T06:46:41.375Z,11.33
2017-04-04T06:47:50.621Z,11.33
2017-04-04T06:48:59.908Z,11.27
2017-04-04T06:50:08.987Z,11.32
2017-04-04T06:51:18.056Z,11.33
2017-04-04T06:52:27.012Z,11.43
2017-04-04T06:53:35.970Z,11.35
2017-04-04T06:54:45.244Z,11.43
2017-04-04T06:55:54.869Z,11.36
2017-04-04T06:57:04.342Z,11.49
2017-04-04T06:58:13.398Z,11.49
2017-04-04T06:59:22.440Z,11.46
2017-04-04T07:00:31.735Z,11.62
2017-04-04T07:01:40.689Z,11.58
2017-04-04T07:02:49.658Z,11.7
2017-04-04T07:03:58.915Z,11.67
2017-04-04T07:05:08.196Z,11.62
2017-04-04T07:06:17.452Z,11.57
2017-04-04T07:07:26.407Z,11.52
2017-04-04T07:08:35.405Z,11.58
2017-04-04T07:09:44.363Z,11.47
2017-04-04T07:10:53.481Z,11.54
2017-04-04T07:12:02.744Z,11.44
2017-04-04T07:13:11.792Z,11.29
2017-04-04T07:14:20.749Z,11.33
2017-04-04T07:15:29.706Z,11.39
2017-04-04T07:16:38.657Z,11.52
2017-04-04T07:17:47.865Z,11.46
2017-04-04T07:18:57.153Z,11.6
2017-04-04T07:20:06.200Z,11.67
2017-04-04T07:21:15.154Z,11.75
2017-04-04T07:22:24.158Z,11.7
2017-04-04T07:23:33.452Z,11.75
2017-04-04T07:24:42.443Z,11.62
2017-04-04T07:25:51.487Z,11.65
2017-04-04T07:27:00.443Z,11.65
2017-04-04T07:28:09.398Z,11.75
2017-04-04T07:29:18.689Z,11.65
2017-04-04T07:30:27.720Z,11.62
2017-04-04T07:31:36.682Z,11.6
2017-04-04T07:32:45.636Z,11.61
2017-04-04T07:33:54.600Z,11.62
2017-04-04T07:35:03.916Z,11.62
2017-04-04T07:36:13.069Z,11.57
2017-04-04T07:37:22.057Z,11.43
2017-04-04T07:38:31.248Z,11.44
2017-04-04T07:39:40.305Z,11.42
2017-04-04T07:40:49.727Z,11.55
2017-04-04T07:41:58.948Z,11.58
2017-04-04T07:43:08.038Z,11.43
2017-04-04T07:44:17.197Z,11.46
2017-04-04T07:45:26.388Z,11.58
2017-04-04T07:46:35.915Z,11.43
2017-04-04T07:47:45.076Z,11.55
2017-04-04T07:48:54.207Z,11.62
2017-04-04T07:50:03.300Z,11.65
2017-04-04T07:51:12.299Z,11.7
2017-04-04T07:52:21.874Z,11.67
2017-04-04T07:53:30.863Z,11.58
2017-04-04T07:54:39.923Z,11.57
2017-04-04T07:55:48.883Z,11.58
2017-04-04T07:56:57.934Z,11.65
2017-04-04T07:58:07.268Z,11.55
2017-04-04T07:59:16.362Z,11.55
2017-04-04T08:00:25.538Z,11.6
2017-04-04T08:01:34.637Z,11.73
2017-04-04T08:02:43.791Z,11.64
2017-04-04T08:03:53.260Z,11.79
2017-04-04T08:05:02.407Z,11.83
2017-04-04T08:06:11.805Z,11.65
2017-04-04T08:07:20.974Z,11.69
2017-04-04T08:08:29.976Z,11.62
2017-04-04T08:09:39.362Z,11.7
2017-04-04T08:10:48.619Z,11.76
2017-04-04T08:11:57.701Z,11.82
2017-04-04T08:13:06.934Z,11.75
2017-04-04T08:14:15.995Z,11.8
2017-04-04T08:15:25.637Z,11.69
2017-04-04T08:16:34.725Z,11.8
2017-04-04T08:17:44.100Z,11.82
2017-04-04T08:18:53.185Z,11.72
2017-04-04T08:20:02.266Z,11.75
2017-04-04T08:21:11.842Z,11.78
2017-04-04T08:22:20.801Z,11.83
2017-04-04T08:23:29.775Z,11.82
2017-04-04T08:24:38.959Z,11.85
2017-04-04T08:25:47.997Z,11.86
2017-04-04T08:26:57.800Z,11.88
2017-04-04T08:28:06.889Z,11.78
2017-04-04T08:29:15.996Z,11.75
2017-04-04T08:30:24.983Z,11.85
2017-04-04T08:31:33.973Z,11.83
2017-04-04T08:32:43.487Z,11.86
2017-04-04T08:33:52.632Z,11.76
2017-04-04T08:35:01.641Z,11.83
2017-04-04T08:36:10.695Z,11.88
2017-04-04T08:37:19.769Z,11.83
2017-04-04T08:38:29.928Z,11.79
2017-04-04T08:39:39.223Z,11.96
2017-04-04T08:40:48.197Z,12.01
2017-04-04T08:41:57.150Z,11.98
2017-04-04T08:43:06.109Z,11.94
2017-04-04T08:44:15.370Z,11.95
2017-04-04T08:45:24.322Z,11.95
2017-04-04T08:46:33.288Z,11.95
2017-04-04T08:47:42.375Z,12.02
2017-04-04T08:48:51.414Z,12.01
2017-04-04T08:50:00.781Z,12.12
2017-04-04T08:51:09.968Z,11.98
2017-04-04T08:52:19.030Z,12.09
2017-04-04T08:53:28.142Z,12.16
2017-04-04T08:54:37.105Z,12.21
2017-04-04T08:55:46.365Z,12.34
2017-04-04T08:56:55.319Z,12.52
2017-04-04T08:58:04.282Z,12.53
2017-04-04T08:59:13.238Z,12.57
2017-04-04T09:00:22.197Z,12.6
2017-04-04T09:01:31.460Z,12.56
2017-04-04T09:02:40.420Z,12.39
2017-04-04T09:03:49.374Z,12.39
2017-04-04T09:04:58.336Z,12.42
2017-04-04T09:06:07.299Z,12.35
2017-04-04T09:07:16.509Z,12.41
2017-04-04T09:08:25.463Z,12.41
2017-04-04T09:09:34.417Z,12.39
2017-04-04T09:10:43.370Z,12.41
2017-04-04T09:11:52.493Z,12.41
2017-04-04T09:13:01.749Z,12.46
2017-04-04T09:14:10.709Z,12.41
2017-04-04T09:15:19.661Z,12.41
2017-04-04T09:16:28.612Z,12.38
2017-04-04T09:17:37.568Z,12.38
2017-04-04T09:18:46.829Z,12.39
2017-04-04T09:19:55.978Z,12.41
2017-04-04T09:21:04.966Z,12.49
2017-04-04T09:22:14.050Z,12.5
2017-04-04T09:23:23.127Z,12.64
2017-04-04T09:24:32.334Z,12.7
2017-04-04T09:25:41.449Z,12.77
2017-04-04T09:26:50.489Z,12.75
2017-04-04T09:27:59.493Z,12.7
2017-04-04T09:29:08.667Z,12.72
2017-04-04T09:30:17.880Z,12.82
2017-04-04T09:31:26.837Z,12.89
2017-04-04T09:32:35.889Z,12.87
2017-04-04T09:33:44.846Z,12.89
2017-04-04T09:34:53.888Z,13.05
2017-04-04T09:36:03.232Z,13.14
2017-04-04T09:37:12.194Z,13.1
2017-04-04T09:38:21.270Z,13.15
2017-04-04T09:39:30.239Z,13.22
2017-04-04T09:40:39.388Z,13.22
2017-04-04T09:41:48.780Z,13.25
2017-04-04T09:42:57.796Z,13.23
2017-04-04T09:44:06.756Z,13.25
2017-04-04T09:45:15.716Z,13.26
2017-04-04T09:46:24.761Z,13.2
2017-04-04T09:47:34.015Z,13.36
2017-04-04T09:48:42.971Z,13.39
2017-04-04T09:49:52.010Z,13.46
2017-04-04T09:51:01.127Z,13.6
2017-04-04T09:52:10.081Z,13.57
2017-04-04T09:53:19.459Z,13.55
2017-04-04T09:54:28.569Z,13.54
2017-04-04T09:55:37.778Z,13.48
2017-04-04T09:56:46.914Z,13.6
2017-04-04T09:57:56.174Z,13.55
2017-04-04T09:59:05.652Z,13.7
2017-04-04T10:00:14.697Z,13.66
2017-04-04T10:01:23.910Z,13.48
2017-04-04T10:02:33.093Z,13.39
2017-04-04T10:03:42.070Z,13.44
2017-04-04T10:04:51.529Z,13.54
2017-04-04T10:06:00.599Z,13.75
2017-04-04T10:07:09.557Z,13.85
2017-04-04T10:08:18.511Z,13.81
2017-04-04T10:09:27.501Z,13.82
2017-04-04T10:10:36.762Z,13.79
2017-04-04T10:11:45.721Z,13.79
2017-04-04T10:12:54.677Z,13.89
2017-04-04T10:14:03.637Z,13.91
2017-04-04T10:15:12.686Z,14
2017-04-04T10:16:22.040Z,14.04
2017-04-04T10:17:31.005Z,14.15
2017-04-04T10:18:39.972Z,14.17
2017-04-04T10:19:49.065Z,14.22
2017-04-04T10:20:58.017Z,14.25
2017-04-04T10:22:07.234Z,14.33
2017-04-04T10:23:16.199Z,14.36
2017-04-04T10:24:25.152Z,14.29
2017-04-04T10:25:34.111Z,14.21
2017-04-04T10:26:43.161Z,14.12
2017-04-04T10:27:52.748Z,14.14
2017-04-04T10:29:01.707Z,14.2
2017-04-04T10:30:10.663Z,14.25
2017-04-04T10:31:19.628Z,14.22
2017-04-04T10:32:28.670Z,14.21
2017-04-04T10:33:37.985Z,14.24
2017-04-04T10:34:46.940Z,14.22
2017-04-04T10:35:55.985Z,14.24
2017-04-04T10:37:05.271Z,14.22
2017-04-04T10:38:14.242Z,14.18
2017-04-04T10:39:23.609Z,14.1
2017-04-04T10:40:32.594Z,14.07
2017-04-04T10:41:41.576Z,14.09
2017-04-04T10:42:50.598Z,14.15
2017-04-04T10:43:59.577Z,14.24
2017-04-04T10:45:08.819Z,14.32
2017-04-04T10:46:17.889Z,14.39
2017-04-04T10:47:26.871Z,14.5
2017-04-04T10:48:35.851Z,14.62
2017-04-04T10:49:44.836Z,14.77
2017-04-04T10:50:54.114Z,14.75
2017-04-04T10:52:03.096Z,14.86
2017-04-04T10:53:12.127Z,14.8
2017-04-04T10:54:21.195Z,14.88
2017-04-04T10:55:30.269Z,14.83
2017-04-04T10:56:39.554Z,14.78
2017-04-04T10:57:48.540Z,14.83
2017-04-04T10:58:57.521Z,14.81
2017-04-04T11:00:06.510Z,14.68
2017-04-04T11:01:15.490Z,14.83
2017-04-04T11:02:24.808Z,14.81
2017-04-04T11:03:33.790Z,14.84
2017-04-04T11:04:42.766Z,14.96
2017-04-04T11:05:51.751Z,14.98
2017-04-04T11:07:00.736Z,14.99
2017-04-04T11:08:10.345Z,14.98
2017-04-04T11:09:19.322Z,15.02
2017-04-04T11:10:28.303Z,15.02
2017-04-04T11:11:37.278Z,15.01
2017-04-04T11:12:46.231Z,15.01
2017-04-04T11:13:55.570Z,14.95
2017-04-04T11:15:04.816Z,15.02
2017-04-04T11:16:13.887Z,14.96
2017-04-04T11:17:22.846Z,15.02
2017-04-04T11:18:31.805Z,15.07
2017-04-04T11:19:41.061Z,14.96
2017-04-04T11:20:50.035Z,15.02
2017-04-04T11:21:59.321Z,15.11
2017-04-04T11:23:08.455Z,15.09
2017-04-04T11:24:17.741Z,15.11
2017-04-04T11:25:27.321Z,15.07
2017-04-04T11:26:36.279Z,14.99
2017-04-04T11:27:45.240Z,15.1
2017-04-04T11:28:54.201Z,15.17
2017-04-04T11:30:03.250Z,15.23
2017-04-04T11:31:12.509Z,15.19
2017-04-04T11:32:21.474Z,15.32
2017-04-04T11:33:30.431Z,15.32
2017-04-04T11:34:39.385Z,15.49
2017-04-04T11:35:48.343Z,15.54
2017-04-04T11:36:57.596Z,15.69
2017-04-04T11:38:06.670Z,15.65
2017-04-04T11:39:15.629Z,15.71
2017-04-04T11:40:24.589Z,15.76
2017-04-04T11:41:33.545Z,15.86
2017-04-04T11:42:42.832Z,15.84
2017-04-04T11:43:51.797Z,15.84
2017-04-04T11:45:00.755Z,15.9
2017-04-04T11:46:10.026Z,15.94
2017-04-04T11:47:19.069Z,16
2017-04-04T11:48:28.325Z,16.01
2017-04-04T11:49:37.365Z,16
2017-04-04T11:50:46.331Z,16.08
2017-04-04T11:51:55.294Z,16.09
2017-04-04T11:53:04.305Z,16.07
2017-04-04T11:54:13.563Z,16.17
2017-04-04T11:55:22.519Z,16.08
2017-04-04T11:56:31.483Z,16.09
2017-04-04T11:57:40.448Z,16.04
2017-04-04T11:58:49.411Z,15.92
2017-04-04T11:59:58.675Z,16.01
2017-04-04T12:01:07.640Z,15.93
2017-04-04T12:02:16.600Z,15.92
2017-04-04T12:03:25.563Z,15.93
2017-04-04T12:04:34.611Z,15.84
2017-04-04T12:05:43.869Z,15.83
2017-04-04T12:06:52.829Z,15.87
2017-04-04T12:08:01.786Z,15.83
2017-04-04T12:09:10.749Z,15.76
2017-04-04T12:10:19.703Z,15.87
2017-04-04T12:11:29.053Z,15.84
2017-04-04T12:12:38.007Z,15.86
2017-04-04T12:13:46.981Z,15.87
2017-04-04T12:14:55.944Z,15.78
2017-04-04T12:16:04.904Z,15.71
2017-04-04T12:17:14.169Z,15.65
2017-04-04T12:18:23.129Z,15.71
2017-04-04T12:19:32.084Z,15.65
2017-04-04T12:20:41.037Z,15.6
2017-04-04T12:21:49.997Z,15.47
2017-04-04T12:22:59.258Z,15.49
2017-04-04T12:24:08.219Z,15.34
2017-04-04T12:25:17.176Z,15.35
2017-04-04T12:26:26.135Z,15.28
2017-04-04T12:27:35.095Z,15.27
2017-04-04T12:28:44.351Z,15.32
2017-04-04T12:29:53.312Z,15.31
2017-04-04T12:31:02.363Z,15.34
2017-04-04T12:32:11.320Z,15.35
2017-04-04T12:33:20.323Z,15.35
2017-04-04T12:34:29.579Z,15.31
2017-04-04T12:35:38.532Z,15.25
2017-04-04T12:36:47.491Z,15.23
2017-04-04T12:37:56.535Z,15.29
2017-04-04T12:39:05.491Z,15.25
2017-04-04T12:40:14.882Z,15.19
2017-04-04T12:41:23.839Z,15.2
2017-04-04T12:42:32.791Z,15.17
2017-04-04T12:43:41.749Z,15.19
2017-04-04T12:44:50.797Z,15.2
2017-04-04T12:46:00.183Z,15.27
2017-04-04T12:47:09.145Z,15.19
2017-04-04T12:48:18.101Z,15.14
2017-04-04T12:49:27.153Z,15.06
2017-04-04T12:50:36.114Z,15.14
2017-04-04T12:51:45.379Z,15.16
2017-04-04T12:52:54.344Z,15.07
2017-04-04T12:54:03.303Z,15.03
2017-04-04T12:55:12.265Z,14.98
2017-04-04T12:56:21.228Z,14.83
2017-04-04T12:57:30.492Z,14.95
2017-04-04T12:58:39.450Z,14.84
2017-04-04T12:59:48.496Z,14.88
2017-04-04T13:00:57.547Z,14.95
2017-04-04T13:02:06.507Z,14.75
2017-04-04T13:03:15.762Z,14.96
2017-04-04T13:04:24.717Z,14.78
2017-04-04T13:05:33.676Z,14.81
2017-04-04T13:06:42.639Z,14.98
2017-04-04T13:07:51.642Z,14.91
2017-04-04T13:09:00.899Z,14.98
2017-04-04T13:10:09.855Z,14.98
2017-04-04T13:11:18.902Z,14.96
2017-04-04T13:12:27.952Z,15.03
2017-04-04T13:13:36.910Z,15.02
2017-04-04T13:14:46.177Z,15.02
2017-04-04T13:15:55.141Z,15.02
2017-04-04T13:17:04.102Z,14.99
2017-04-04T13:18:13.060Z,14.99
2017-04-04T13:19:22.114Z,15.11
2017-04-04T13:20:31.380Z,15.07
2017-04-04T13:21:40.344Z,15.09
2017-04-04T13:22:49.306Z,15.11
2017-04-04T13:23:58.362Z,15.03
2017-04-04T13:25:07.329Z,15.09
2017-04-04T13:26:16.589Z,15.19
2017-04-04T13:27:25.884Z,15.25
2017-04-04T13:28:34.850Z,15.19
2017-04-04T13:29:44.142Z,15.25
2017-04-04T13:30:53.140Z,15.1
2017-04-04T13:32:02.399Z,15.07
2017-04-04T13:33:11.687Z,15.13
2017-04-04T13:34:20.733Z,15.09
2017-04-04T13:35:29.705Z,15.03
2017-04-04T13:36:38.665Z,15.07
2017-04-04T13:37:47.929Z,14.99
2017-04-04T13:38:56.880Z,15.03
2017-04-04T13:40:05.929Z,15.02
2017-04-04T13:41:14.892Z,14.99
2017-04-04T13:42:23.854Z,15.01
2017-04-04T13:43:33.116Z,14.96
2017-04-04T13:44:42.157Z,15.07
2017-04-04T13:45:51.111Z,15.09
2017-04-04T13:47:00.390Z,14.98
2017-04-04T13:48:09.437Z,15.09
2017-04-04T13:49:18.696Z,15.02
2017-04-04T13:50:27.663Z,14.98
2017-04-04T13:51:36.619Z,14.99
2017-04-04T13:52:45.579Z,15.06
2017-04-04T13:53:54.542Z,15.07
2017-04-04T13:55:03.797Z,15.09
2017-04-04T13:56:12.761Z,15.06
2017-04-04T13:57:21.732Z,15.06
2017-04-04T13:58:30.693Z,14.96
2017-04-04T13:59:39.741Z,14.96
2017-04-04T14:00:48.998Z,14.99
2017-04-04T14:01:57.953Z,15.02
2017-04-04T14:03:06.913Z,15.02
2017-04-04T14:04:15.868Z,15.03
2017-04-04T14:05:24.837Z,14.98
2017-04-04T14:06:34.099Z,14.99
2017-04-04T14:07:43.052Z,14.95
2017-04-04T14:08:52.099Z,14.91
2017-04-04T14:10:01.139Z,14.83
2017-04-04T14:11:10.100Z,14.75
2017-04-04T14:12:19.452Z,14.8
2017-04-04T14:13:28.410Z,14.86
2017-04-04T14:14:37.369Z,14.86
2017-04-04T14:15:46.331Z,14.78
2017-04-04T14:16:55.378Z,14.78
2017-04-04T14:18:04.645Z,14.81
2017-04-04T14:19:13.695Z,14.86
2017-04-04T14:20:22.737Z,14.83
2017-04-04T14:21:31.814Z,14.83
2017-04-04T14:22:40.822Z,14.69
2017-04-04T14:23:50.101Z,14.73
2017-04-04T14:24:59.070Z,14.7
2017-04-04T14:26:08.027Z,14.77
2017-04-04T14:27:17.152Z,14.62
2017-04-04T14:28:26.210Z,14.68
2017-04-04T14:29:35.475Z,14.61
2017-04-04T14:30:44.530Z,14.6
2017-04-04T14:31:53.700Z,14.62
2017-04-04T14:33:02.826Z,14.65
2017-04-04T14:34:11.836Z,14.54
2017-04-04T14:35:21.162Z,14.52
2017-04-04T14:36:30.216Z,14.5
2017-04-04T14:37:39.173Z,14.6
2017-04-04T14:38:48.375Z,14.57
2017-04-04T14:39:57.502Z,14.52
2017-04-04T14:41:07.106Z,14.47
2017-04-04T14:42:16.164Z,14.45
2017-04-04T14:43:25.132Z,14.42
2017-04-04T14:44:34.130Z,14.46
2017-04-04T14:45:43.084Z,14.4
2017-04-04T14:46:52.346Z,14.29
2017-04-04T14:48:01.301Z,14.21
2017-04-04T14:49:10.257Z,14.17
2017-04-04T14:50:19.214Z,14.2
2017-04-04T14:51:28.173Z,14.21
2017-04-04T14:52:37.432Z,14.22
2017-04-04T14:53:46.394Z,14.22